RUNWAY INFORMATION
Runway Length Width Elevation Displaced
Threshold
Heading | Runway Length Width Elevation Displaced
Threshold
Heading
12 11155 ft 148 ft 318 ft 0 ft 122 | 30 11155 ft 148 ft 335 ft 1312 ft 302

 AIRPORT FREQUENCIES
Type APP Name APP Frequency 119.1 MHZ
Type ATIS Name INFO Frequency 122.925 MHZ
Type TWR Name TWR Frequency 118.1 MHZ

 AIRPORT NEAR NAVIGATION AIDS
Type VOR-DME Name Beograd Frequency 112300 KHZ
Type NDB Name Beograd Frequency 316 KHZ
Type NDB Name Beograd Frequency 380 KHZ
Type NDB Name Beograd Frequency 355 KHZ

 METAR AND TAF INFORMATION
METAR FOR LYBE
ADDS - METARS form results

(0627 UTC 15 June 2021)
Data provider http://aviationweather.gov/metar/data/
 
METAR text: LYBE 150600Z 32006KT 9999 SCT040 17/11 Q1019 NOSIG
Conditions at: LYBE (BELGRADE/SURCIN , RS) observed 0600 UTC 15 June 2021
Temperature: 17.0°C (63°F)
Dewpoint: 11.0°C (52°F) [RH = 68%]
Pressure (altimeter): 30.09 inches Hg (1019.0 mb)
Winds: from the NW (320 degrees) at 7 MPH (6 knots; 3.1 m/s)
Visibility: 6 or more miles (10+ km)
Ceiling: at least 12,000 feet AGL
Clouds: scattered clouds at 4000 feet AGL
Weather: no significant weather observed at this time

METAR text: LYBE 150530Z 32006KT 280V360 CAVOK 17/11 Q1019 NOSIG
Conditions at: LYBE (BELGRADE/SURCIN , RS) observed 0530 UTC 15 June 2021
Temperature: 17.0°C (63°F)
Dewpoint: 11.0°C (52°F) [RH = 68%]
Pressure (altimeter): 30.09 inches Hg (1019.0 mb)
Winds: from the NW (320 degrees) at 7 MPH (6 knots; 3.1 m/s)
Visibility: 6 or more miles (10+ km)
Ceiling: ceiling and visibility are OK
Clouds: unknown
Weather: no significant weather observed at this time

Forecast for: COR
Text: TAF COR LYBE 150500Z 1506/1606 29005KT 9999 SCT040 TX25/1513Z TN11/1603Z
Forecast period: 0600 to 0900 UTC 15 June 2021
Forecast type: FROM: standard forecast or significant change
Winds: from the WNW (290 degrees) at 6 MPH (5 knots; 2.6 m/s)
Visibility: 6 or more miles (10+ km)
Ceiling: at least 12,000 feet AGL
Clouds: scattered clouds at 4000 feet AGL
Weather: no significant weather forecast for this period
Text: BECMG 1509/1511 35012KT
Forecast period: 0900 to 1600 UTC 15 June 2021
Forecast type: BECOMING: Conditions expected to become as follows by 1100 UTC 15 June 2021
Winds: from the N (350 degrees) at 14 MPH (12 knots; 6.2 m/s)
Visibility: 6 or more miles (10+ km)
Ceiling: at least 12,000 feet AGL
Clouds: scattered clouds at 4000 feet AGL
Weather: no significant weather forecast for this period
Text: BECMG 1516/1518 28005KT
Forecast period: 1600 UTC 15 June 2021 to 0600 UTC 16 June 2021
Forecast type: BECOMING: Conditions expected to become as follows by 1800 UTC 15 June 2021
Winds: from the W (280 degrees) at 6 MPH (5 knots; 2.6 m/s)
Visibility: 6 or more miles (10+ km)
Ceiling: at least 12,000 feet AGL
Clouds: scattered clouds at 4000 feet AGL
Weather: no significant weather forecast for this period



© 2013 - 2021, FlightSimLog.org - Powered by Virtual Airlines Manager